createdAt,value
2017-10-22T00:00:37.837Z,0.00
2017-10-22T00:01:37.818Z,0.00
2017-10-22T00:02:37.851Z,0.00
2017-10-22T00:03:37.833Z,0.00
2017-10-22T00:04:37.861Z,0.00
2017-10-22T00:05:37.850Z,0.00
2017-10-22T00:06:37.873Z,0.00
2017-10-22T00:07:37.870Z,0.00
2017-10-22T00:08:37.987Z,0.00
2017-10-22T00:09:37.883Z,0.00
2017-10-22T00:10:38.007Z,0.00
2017-10-22T00:11:37.901Z,0.00
2017-10-22T00:12:37.914Z,0.00
2017-10-22T00:13:38.022Z,0.00
2017-10-22T00:14:37.928Z,0.00
2017-10-22T00:15:38.036Z,0.00
2017-10-22T00:16:37.943Z,0.00
2017-10-22T00:17:38.044Z,0.00
2017-10-22T00:18:37.961Z,0.00
2017-10-22T00:19:38.062Z,0.00
2017-10-22T00:20:37.976Z,0.00
2017-10-22T00:21:38.073Z,0.00
2017-10-22T00:22:37.997Z,0.00
2017-10-22T00:23:38.097Z,0.00
2017-10-22T00:24:38.016Z,0.00
2017-10-22T00:25:38.116Z,0.00
2017-10-22T00:26:38.027Z,0.00
2017-10-22T00:27:38.036Z,0.00
2017-10-22T00:28:38.120Z,0.00
2017-10-22T00:29:38.052Z,0.00
2017-10-22T00:30:38.127Z,0.00
2017-10-22T00:31:38.067Z,0.00
2017-10-22T00:32:38.142Z,0.00
2017-10-22T00:33:38.085Z,0.00
2017-10-22T00:34:38.154Z,0.00
2017-10-22T00:35:38.098Z,0.00
2017-10-22T00:36:38.168Z,0.00
2017-10-22T00:37:38.121Z,0.00
2017-10-22T00:38:38.194Z,0.00
2017-10-22T00:39:38.135Z,0.00
2017-10-22T00:40:38.196Z,0.00
2017-10-22T00:41:38.160Z,0.00
2017-10-22T00:42:38.167Z,0.00
2017-10-22T00:43:38.213Z,0.00
2017-10-22T00:44:38.177Z,0.00
2017-10-22T00:45:38.227Z,0.00
2017-10-22T00:46:38.192Z,0.00
2017-10-22T00:47:38.241Z,0.00
2017-10-22T00:48:38.211Z,0.00
2017-10-22T00:49:38.253Z,0.00
2017-10-22T00:50:38.225Z,0.00
2017-10-22T00:51:38.265Z,0.00
2017-10-22T00:52:38.246Z,0.00
2017-10-22T00:53:38.276Z,0.00
2017-10-22T00:54:38.259Z,0.00
2017-10-22T00:55:38.292Z,0.00
2017-10-22T00:56:38.277Z,0.00
2017-10-22T00:57:38.302Z,0.00
2017-10-22T00:58:38.291Z,0.00
2017-10-22T00:59:38.316Z,0.00
2017-10-22T01:00:38.311Z,0.00
2017-10-22T01:01:38.431Z,0.00
2017-10-22T01:02:38.328Z,0.00
2017-10-22T01:03:38.446Z,0.00
2017-10-22T01:04:38.346Z,0.00
2017-10-22T01:05:38.457Z,0.00
2017-10-22T01:06:38.359Z,0.00
2017-10-22T01:07:38.468Z,0.00
2017-10-22T01:08:38.379Z,0.00
2017-10-22T01:09:38.485Z,0.00
2017-10-22T01:10:38.393Z,0.00
2017-10-22T01:11:38.400Z,0.00
2017-10-22T01:12:38.414Z,0.00
2017-10-22T01:13:38.511Z,0.00
2017-10-22T01:14:38.427Z,0.00
2017-10-22T01:15:38.524Z,0.00
2017-10-22T01:16:38.448Z,0.00
2017-10-22T01:17:38.539Z,0.00
2017-10-22T01:18:38.459Z,0.00
2017-10-22T01:19:38.551Z,0.00
2017-10-22T01:20:38.475Z,0.00
2017-10-22T01:21:38.562Z,0.00
2017-10-22T01:22:38.493Z,0.00
2017-10-22T01:23:38.576Z,0.00
2017-10-22T01:24:38.509Z,0.00
2017-10-22T01:25:38.587Z,0.00
2017-10-22T01:26:38.526Z,0.00
2017-10-22T01:27:38.601Z,0.00
2017-10-22T01:28:38.543Z,0.00
2017-10-22T01:29:38.613Z,0.00
2017-10-22T01:30:38.555Z,0.00
2017-10-22T01:31:38.623Z,0.00
2017-10-22T01:32:38.579Z,0.00
2017-10-22T01:33:38.639Z,0.00
2017-10-22T01:34:38.592Z,0.00
2017-10-22T01:35:38.650Z,0.00
2017-10-22T01:36:38.607Z,0.00
2017-10-22T01:37:38.663Z,0.00
2017-10-22T01:38:38.634Z,0.00
2017-10-22T01:39:38.679Z,0.00
2017-10-22T01:40:38.640Z,0.00
2017-10-22T01:41:38.690Z,0.00
2017-10-22T01:42:38.653Z,0.00
2017-10-22T01:43:38.707Z,0.00
2017-10-22T01:44:38.672Z,0.00
2017-10-22T01:45:38.722Z,0.00
2017-10-22T01:46:38.691Z,0.00
2017-10-22T01:47:38.731Z,0.00
2017-10-22T01:48:38.709Z,0.00
2017-10-22T01:49:38.745Z,0.00
2017-10-22T01:50:38.720Z,0.00
2017-10-22T01:51:38.757Z,0.00
2017-10-22T01:52:38.740Z,0.00
2017-10-22T01:53:38.772Z,0.00
2017-10-22T01:54:38.759Z,0.00
2017-10-22T01:55:38.764Z,0.00
2017-10-22T01:56:38.773Z,0.00
2017-10-22T01:57:38.786Z,0.00
2017-10-22T01:58:38.803Z,0.00
2017-10-22T01:59:38.803Z,0.00
2017-10-22T02:00:38.918Z,0.00
2017-10-22T02:01:38.816Z,0.00
2017-10-22T02:02:38.930Z,0.00
2017-10-22T02:03:38.830Z,0.00
2017-10-22T02:04:38.943Z,0.00
2017-10-22T02:05:38.846Z,0.00
2017-10-22T02:06:38.956Z,0.00
2017-10-22T02:07:38.861Z,0.00
2017-10-22T02:08:39.896Z,0.00
2017-10-22T02:09:38.878Z,0.00
2017-10-22T02:10:38.997Z,0.00
2017-10-22T02:11:38.898Z,0.00
2017-10-22T02:12:38.997Z,0.00
2017-10-22T02:13:38.911Z,0.00
2017-10-22T02:14:39.007Z,0.00
2017-10-22T02:15:38.925Z,0.00
2017-10-22T02:16:39.018Z,0.00
2017-10-22T02:17:38.942Z,0.00
2017-10-22T02:18:39.036Z,0.00
2017-10-22T02:19:38.961Z,0.00
2017-10-22T02:20:39.043Z,0.00
2017-10-22T02:21:38.977Z,0.00
2017-10-22T02:22:39.058Z,0.00
2017-10-22T02:23:38.993Z,0.00
2017-10-22T02:24:39.068Z,0.00
2017-10-22T02:25:39.009Z,0.00
2017-10-22T02:26:39.080Z,0.00
2017-10-22T02:27:39.026Z,0.00
2017-10-22T02:28:39.096Z,0.00
2017-10-22T02:29:39.040Z,0.00
2017-10-22T02:30:39.109Z,0.00
2017-10-22T02:31:39.059Z,0.00
2017-10-22T02:32:39.121Z,0.00
2017-10-22T02:33:39.078Z,0.00
2017-10-22T02:34:39.134Z,0.00
2017-10-22T02:35:39.091Z,0.00
2017-10-22T02:36:39.148Z,0.00
2017-10-22T02:37:39.114Z,0.00
2017-10-22T02:38:39.163Z,0.00
2017-10-22T02:39:39.130Z,0.00
2017-10-22T02:40:39.176Z,0.00
2017-10-22T02:41:39.140Z,0.00
2017-10-22T02:42:39.189Z,0.00
2017-10-22T02:43:39.164Z,0.00
2017-10-22T02:44:39.204Z,0.00
2017-10-22T02:45:39.182Z,0.00
2017-10-22T02:46:39.231Z,0.00
2017-10-22T02:47:39.189Z,0.00
2017-10-22T02:48:39.226Z,0.00
2017-10-22T02:49:39.204Z,0.00
2017-10-22T02:50:39.239Z,0.00
2017-10-22T02:51:39.221Z,0.00
2017-10-22T02:52:39.255Z,0.00
2017-10-22T02:53:39.237Z,0.00
2017-10-22T02:54:39.245Z,0.00
2017-10-22T02:55:39.254Z,0.00
2017-10-22T02:56:39.259Z,0.00
2017-10-22T02:57:39.282Z,0.00
2017-10-22T02:58:39.276Z,0.00
2017-10-22T02:59:39.397Z,0.00
2017-10-22T03:00:39.292Z,0.00
2017-10-22T03:01:39.410Z,0.00
2017-10-22T03:02:39.313Z,0.00
2017-10-22T03:03:39.424Z,0.00
2017-10-22T03:04:39.331Z,0.00
2017-10-22T03:05:39.435Z,0.00
2017-10-22T03:06:39.340Z,0.00
2017-10-22T03:07:39.451Z,0.00
2017-10-22T03:08:39.355Z,0.00
2017-10-22T03:09:39.467Z,0.00
2017-10-22T03:10:39.371Z,0.00
2017-10-22T03:11:39.476Z,0.00
2017-10-22T03:12:39.390Z,0.00
2017-10-22T03:13:39.489Z,0.00
2017-10-22T03:14:39.404Z,0.00
2017-10-22T03:15:40.527Z,0.00
2017-10-22T03:16:39.427Z,0.00
2017-10-22T03:17:39.531Z,0.00
2017-10-22T03:18:39.443Z,0.00
2017-10-22T03:19:39.532Z,0.00
2017-10-22T03:20:39.455Z,0.00
2017-10-22T03:21:39.542Z,0.00
2017-10-22T03:22:39.468Z,0.00
2017-10-22T03:23:39.556Z,0.00
2017-10-22T03:24:39.487Z,0.00
2017-10-22T03:25:39.569Z,0.00
2017-10-22T03:26:39.506Z,0.00
2017-10-22T03:27:39.578Z,0.00
2017-10-22T03:28:39.520Z,0.00
2017-10-22T03:29:39.591Z,0.00
2017-10-22T03:30:39.541Z,0.00
2017-10-22T03:31:39.604Z,0.00
2017-10-22T03:32:39.551Z,0.00
2017-10-22T03:33:39.617Z,0.00
2017-10-22T03:34:39.567Z,0.00
2017-10-22T03:35:39.631Z,0.00
2017-10-22T03:36:39.581Z,0.00
2017-10-22T03:37:39.641Z,0.00
2017-10-22T03:38:39.598Z,0.00
2017-10-22T03:39:39.654Z,0.00
2017-10-22T03:40:39.610Z,0.00
2017-10-22T03:41:39.669Z,0.00
2017-10-22T03:42:39.633Z,0.00
2017-10-22T03:43:39.680Z,0.00
2017-10-22T03:44:39.647Z,0.00
2017-10-22T03:45:39.703Z,0.00
2017-10-22T03:46:39.661Z,0.00
2017-10-22T03:47:39.706Z,0.00
2017-10-22T03:48:39.678Z,0.00
2017-10-22T03:49:39.716Z,0.00
2017-10-22T03:50:39.694Z,0.00
2017-10-22T03:51:39.732Z,0.00
2017-10-22T03:52:39.708Z,0.00
2017-10-22T03:53:39.716Z,0.00
2017-10-22T03:54:39.750Z,0.00
2017-10-22T03:55:39.734Z,0.00
2017-10-22T03:56:39.762Z,0.00
2017-10-22T03:57:39.746Z,0.00
2017-10-22T03:58:39.777Z,0.00
2017-10-22T03:59:39.763Z,0.00
2017-10-22T04:00:39.790Z,0.00
2017-10-22T04:01:39.778Z,0.00
2017-10-22T04:02:39.804Z,0.00
2017-10-22T04:03:39.794Z,0.00
2017-10-22T04:04:39.941Z,0.00
2017-10-22T04:05:39.810Z,0.00
2017-10-22T04:06:39.933Z,0.00
2017-10-22T04:07:39.828Z,0.00
2017-10-22T04:08:39.946Z,0.00
2017-10-22T04:09:39.844Z,0.00
2017-10-22T04:10:39.962Z,0.00
2017-10-22T04:11:39.863Z,0.00
2017-10-22T04:12:39.972Z,0.00
2017-10-22T04:13:39.876Z,0.00
2017-10-22T04:14:39.986Z,0.00
2017-10-22T04:15:39.891Z,0.00
2017-10-22T04:16:39.999Z,0.00
2017-10-22T04:17:39.909Z,0.00
2017-10-22T04:18:40.013Z,0.00
2017-10-22T04:19:39.928Z,0.00
2017-10-22T04:20:40.020Z,0.00
2017-10-22T04:21:39.943Z,0.00
2017-10-22T04:22:40.033Z,0.00
2017-10-22T04:23:39.955Z,0.00
2017-10-22T04:24:40.048Z,0.00
2017-10-22T04:25:39.971Z,0.00
2017-10-22T04:26:40.061Z,0.00
2017-10-22T04:27:39.989Z,0.00
2017-10-22T04:28:40.073Z,0.00
2017-10-22T04:29:40.004Z,0.00
2017-10-22T04:30:40.087Z,0.00
2017-10-22T04:31:40.019Z,0.00
2017-10-22T04:32:40.105Z,0.00
2017-10-22T04:33:40.038Z,0.00
2017-10-22T04:34:40.112Z,0.00
2017-10-22T04:35:40.048Z,0.00
2017-10-22T04:36:40.124Z,0.00
2017-10-22T04:37:40.066Z,0.00
2017-10-22T04:38:40.136Z,0.00
2017-10-22T04:39:40.079Z,0.00
2017-10-22T04:40:40.149Z,0.00
2017-10-22T04:41:40.096Z,0.00
2017-10-22T04:42:40.165Z,0.00
2017-10-22T04:43:40.119Z,0.00
2017-10-22T04:44:40.182Z,0.00
2017-10-22T04:45:40.128Z,0.00
2017-10-22T04:46:40.187Z,0.00
2017-10-22T04:47:40.147Z,0.00
2017-10-22T04:48:40.201Z,0.00
2017-10-22T04:49:40.167Z,0.00
2017-10-22T04:50:40.215Z,0.00
2017-10-22T04:51:40.360Z,0.00
2017-10-22T04:52:40.186Z,0.00
2017-10-22T04:53:40.237Z,0.00
2017-10-22T04:54:40.203Z,0.00
2017-10-22T04:55:40.246Z,0.00
2017-10-22T04:56:40.224Z,0.00
2017-10-22T04:57:40.259Z,0.00
2017-10-22T04:58:40.234Z,0.00
2017-10-22T04:59:40.272Z,0.00
2017-10-22T05:00:40.250Z,0.00
2017-10-22T05:01:40.287Z,0.00
2017-10-22T05:02:40.263Z,0.00
2017-10-22T05:03:40.300Z,0.00
2017-10-22T05:04:40.282Z,0.00
2017-10-22T05:05:40.311Z,0.00
2017-10-22T05:06:40.295Z,0.00
2017-10-22T05:07:40.332Z,0.00
2017-10-22T05:08:40.317Z,0.00
2017-10-22T05:09:40.338Z,0.00
2017-10-22T05:10:40.329Z,0.00
2017-10-22T05:11:40.336Z,0.00
2017-10-22T05:12:40.428Z,0.00
2017-10-22T05:13:40.351Z,0.00
2017-10-22T05:14:40.440Z,0.00
2017-10-22T05:15:40.366Z,0.00
2017-10-22T05:16:40.558Z,0.00
2017-10-22T05:17:40.379Z,0.00
2017-10-22T05:18:40.570Z,0.00
2017-10-22T05:19:40.397Z,0.00
2017-10-22T05:20:40.584Z,0.00
2017-10-22T05:21:40.411Z,0.00
2017-10-22T05:22:40.424Z,0.00
2017-10-22T05:23:40.603Z,0.00
2017-10-22T05:24:40.438Z,0.00
2017-10-22T05:25:40.616Z,0.00
2017-10-22T05:26:40.458Z,0.00
2017-10-22T05:27:40.629Z,0.00
2017-10-22T05:28:40.465Z,0.00
2017-10-22T05:29:40.643Z,0.00
2017-10-22T05:30:40.485Z,0.00
2017-10-22T05:31:40.656Z,0.00
2017-10-22T05:32:40.505Z,0.00
2017-10-22T05:33:40.506Z,0.00
2017-10-22T05:34:40.517Z,0.00
2017-10-22T05:35:40.685Z,0.00
2017-10-22T05:36:40.530Z,0.00
2017-10-22T05:37:40.699Z,0.00
2017-10-22T05:38:40.546Z,0.00
2017-10-22T05:39:40.713Z,0.00
2017-10-22T05:40:40.564Z,0.00
2017-10-22T05:41:40.566Z,0.00
2017-10-22T05:42:40.577Z,0.00
2017-10-22T05:43:40.637Z,0.00
2017-10-22T05:44:40.597Z,0.00
2017-10-22T05:45:40.605Z,0.00
2017-10-22T05:46:40.758Z,0.00
2017-10-22T05:47:40.640Z,0.00
2017-10-22T05:48:40.772Z,0.00
2017-10-22T05:49:40.639Z,0.00
2017-10-22T05:50:40.787Z,0.00
2017-10-22T05:51:40.652Z,0.00
2017-10-22T05:52:40.797Z,0.00
2017-10-22T05:53:40.664Z,0.00
2017-10-22T05:54:40.810Z,0.00
2017-10-22T05:55:40.677Z,0.00
2017-10-22T05:56:40.825Z,0.00
2017-10-22T05:57:40.693Z,0.00
2017-10-22T05:58:40.838Z,0.00
2017-10-22T05:59:40.710Z,0.00
2017-10-22T06:00:40.724Z,0.00
2017-10-22T06:01:40.859Z,0.00
2017-10-22T06:02:40.738Z,0.00
2017-10-22T06:03:40.886Z,0.00
2017-10-22T06:04:40.749Z,0.00
2017-10-22T06:05:40.889Z,0.00
2017-10-22T06:06:40.765Z,0.00
2017-10-22T06:07:40.902Z,0.00
2017-10-22T06:08:40.782Z,0.00
2017-10-22T06:09:40.921Z,0.00
2017-10-22T06:10:40.792Z,0.00
2017-10-22T06:11:40.926Z,0.00
2017-10-22T06:12:40.812Z,0.00
2017-10-22T06:13:40.940Z,0.00
2017-10-22T06:14:40.833Z,0.00
2017-10-22T06:15:40.954Z,0.00
2017-10-22T06:16:40.848Z,0.00
2017-10-22T06:17:40.969Z,0.00
2017-10-22T06:18:40.859Z,0.00
2017-10-22T06:19:40.866Z,0.00
2017-10-22T06:20:40.873Z,0.00
2017-10-22T06:21:40.998Z,0.00
2017-10-22T06:22:40.891Z,0.00
2017-10-22T06:23:41.017Z,0.00
2017-10-22T06:24:40.902Z,0.00
2017-10-22T06:25:41.025Z,0.00
2017-10-22T06:26:40.922Z,0.00
2017-10-22T06:27:41.038Z,0.00
2017-10-22T06:28:40.936Z,0.00
2017-10-22T06:29:41.059Z,0.00
2017-10-22T06:30:40.952Z,0.00
2017-10-22T06:31:41.062Z,0.00
2017-10-22T06:32:40.965Z,0.00
2017-10-22T06:33:41.179Z,0.00
2017-10-22T06:34:40.981Z,0.00
2017-10-22T06:35:41.196Z,0.00
2017-10-22T06:36:41.028Z,0.00
2017-10-22T06:37:41.006Z,0.00
2017-10-22T06:38:42.136Z,0.00
2017-10-22T06:39:41.042Z,0.00
2017-10-22T06:40:41.236Z,0.00
2017-10-22T06:41:41.077Z,0.00
2017-10-22T06:42:41.242Z,0.00
2017-10-22T06:43:41.051Z,0.00
2017-10-22T06:44:41.058Z,0.00
2017-10-22T06:45:41.063Z,0.00
2017-10-22T06:46:41.074Z,0.00
2017-10-22T06:47:41.081Z,0.00
2017-10-22T06:48:41.087Z,0.00
2017-10-22T06:49:41.099Z,0.00
2017-10-22T06:50:41.106Z,0.00
2017-10-22T06:51:41.113Z,0.00
2017-10-22T06:52:41.309Z,0.00
2017-10-22T06:53:41.132Z,0.00
2017-10-22T06:54:41.320Z,0.00
2017-10-22T06:55:41.150Z,0.00
2017-10-22T06:56:41.335Z,0.00
2017-10-22T06:57:41.162Z,0.00
2017-10-22T06:58:41.350Z,0.00
2017-10-22T06:59:41.177Z,0.00
2017-10-22T07:00:41.183Z,0.00
2017-10-22T07:01:41.193Z,0.00
2017-10-22T07:02:41.204Z,0.00
2017-10-22T07:03:41.204Z,0.00
2017-10-22T07:04:41.219Z,0.00
2017-10-22T07:05:41.221Z,0.00
2017-10-22T07:06:41.232Z,0.00
2017-10-22T07:07:41.239Z,0.00
2017-10-22T07:08:41.250Z,0.00
2017-10-22T07:09:41.252Z,0.00
2017-10-22T07:10:41.259Z,0.00
2017-10-22T07:11:41.268Z,0.00
2017-10-22T07:12:41.276Z,0.00
2017-10-22T07:13:41.283Z,0.00
2017-10-22T07:14:41.288Z,0.00
2017-10-22T07:15:41.363Z,0.00
2017-10-22T07:16:41.306Z,0.00
2017-10-22T07:17:41.313Z,0.00
2017-10-22T07:18:41.383Z,0.00
2017-10-22T07:19:41.324Z,0.00
2017-10-22T07:20:41.396Z,0.00
2017-10-22T07:21:41.340Z,0.00
2017-10-22T07:22:41.410Z,0.00
2017-10-22T07:23:41.364Z,0.00
2017-10-22T07:24:41.424Z,0.00
2017-10-22T07:25:41.385Z,5.63
2017-10-22T07:26:41.401Z,5.63
2017-10-22T07:27:41.392Z,5.63
2017-10-22T07:28:41.398Z,5.63
2017-10-22T07:29:41.405Z,5.63
2017-10-22T07:30:41.462Z,0.00
2017-10-22T07:31:41.418Z,5.63
2017-10-22T07:32:41.427Z,5.63
2017-10-22T07:33:41.483Z,5.63
2017-10-22T07:34:41.442Z,5.63
2017-10-22T07:35:41.499Z,5.63
2017-10-22T07:36:41.469Z,5.63
2017-10-22T07:37:41.515Z,5.63
2017-10-22T07:38:41.473Z,5.63
2017-10-22T07:39:41.526Z,5.63
2017-10-22T07:40:41.489Z,5.63
2017-10-22T07:41:41.593Z,5.63
2017-10-22T07:42:41.503Z,5.63
2017-10-22T07:43:41.606Z,5.63
2017-10-22T07:44:41.521Z,5.63
2017-10-22T07:45:41.621Z,5.63
2017-10-22T07:46:41.533Z,11.25
2017-10-22T07:47:41.633Z,11.25
2017-10-22T07:48:41.549Z,11.25
2017-10-22T07:49:41.648Z,5.63
2017-10-22T07:50:41.562Z,5.63
2017-10-22T07:51:41.662Z,5.63
2017-10-22T07:52:41.609Z,5.63
2017-10-22T07:53:41.673Z,5.63
2017-10-22T07:54:41.592Z,5.63
2017-10-22T07:55:41.689Z,5.63
2017-10-22T07:56:41.614Z,5.63
2017-10-22T07:57:41.701Z,5.63
2017-10-22T07:58:41.628Z,5.63
2017-10-22T07:59:41.714Z,5.63
2017-10-22T08:00:41.641Z,5.63
2017-10-22T08:01:41.740Z,5.63
2017-10-22T08:02:41.656Z,5.63
2017-10-22T08:03:41.752Z,5.63
2017-10-22T08:04:41.673Z,5.63
2017-10-22T08:05:41.683Z,5.63
2017-10-22T08:06:41.687Z,5.63
2017-10-22T08:07:41.771Z,5.63
2017-10-22T08:08:41.700Z,5.63
2017-10-22T08:09:41.784Z,5.63
2017-10-22T08:10:41.716Z,5.63
2017-10-22T08:11:41.726Z,5.63
2017-10-22T08:12:41.731Z,5.63
2017-10-22T08:13:41.813Z,0.00
2017-10-22T08:14:41.745Z,0.00
2017-10-22T08:15:41.824Z,5.63
2017-10-22T08:16:41.762Z,5.63
2017-10-22T08:17:41.768Z,5.63
2017-10-22T08:18:41.778Z,5.63
2017-10-22T08:19:41.851Z,5.63
2017-10-22T08:20:41.813Z,5.63
2017-10-22T08:21:41.866Z,5.63
2017-10-22T08:22:41.810Z,5.63
2017-10-22T08:23:41.877Z,11.25
2017-10-22T08:24:41.822Z,5.63
2017-10-22T08:25:41.898Z,11.25
2017-10-22T08:26:41.837Z,11.25
2017-10-22T08:27:41.846Z,11.25
2017-10-22T08:28:41.913Z,11.25
2017-10-22T08:29:41.859Z,11.25
2017-10-22T08:30:41.927Z,16.88
2017-10-22T08:31:41.875Z,11.25
2017-10-22T08:32:41.941Z,11.25
2017-10-22T08:33:41.925Z,16.88
2017-10-22T08:34:41.952Z,16.88
2017-10-22T08:35:41.911Z,11.25
2017-10-22T08:36:41.968Z,11.25
2017-10-22T08:37:41.918Z,11.25
2017-10-22T08:38:41.978Z,11.25
2017-10-22T08:39:41.942Z,11.25
2017-10-22T08:40:41.948Z,11.25
2017-10-22T08:41:41.958Z,11.25
2017-10-22T08:42:41.957Z,11.25
2017-10-22T08:43:42.014Z,11.25
2017-10-22T08:44:41.977Z,11.25
2017-10-22T08:45:42.030Z,11.25
2017-10-22T08:46:42.005Z,11.25
2017-10-22T08:47:42.040Z,11.25
2017-10-22T08:48:42.004Z,5.63
2017-10-22T08:49:42.060Z,5.63
2017-10-22T08:50:42.027Z,11.25
2017-10-22T08:51:43.098Z,11.25
2017-10-22T08:52:42.041Z,5.63
2017-10-22T08:53:42.058Z,11.25
2017-10-22T08:54:42.054Z,11.25
2017-10-22T08:55:42.099Z,11.25
2017-10-22T08:56:42.065Z,11.25
2017-10-22T08:57:42.081Z,11.25
2017-10-22T08:58:43.143Z,16.88
2017-10-22T08:59:42.085Z,22.50
2017-10-22T09:00:42.093Z,22.50
2017-10-22T09:01:42.099Z,16.88
2017-10-22T09:02:42.114Z,11.25
2017-10-22T09:03:42.115Z,11.25
2017-10-22T09:04:42.126Z,11.25
2017-10-22T09:05:42.129Z,11.25
2017-10-22T09:06:42.137Z,11.25
2017-10-22T09:07:42.147Z,16.88
2017-10-22T09:08:42.154Z,16.88
2017-10-22T09:09:42.159Z,16.88
2017-10-22T09:10:42.173Z,16.88
2017-10-22T09:11:42.176Z,22.50
2017-10-22T09:12:42.195Z,16.88
2017-10-22T09:13:42.200Z,28.13
2017-10-22T09:14:42.201Z,22.50
2017-10-22T09:15:42.213Z,16.88
2017-10-22T09:16:42.213Z,16.88
2017-10-22T09:17:42.246Z,16.88
2017-10-22T09:18:42.232Z,22.50
2017-10-22T09:19:43.285Z,22.50
2017-10-22T09:20:42.244Z,28.13
2017-10-22T09:21:42.250Z,28.13
2017-10-22T09:22:42.281Z,28.13
2017-10-22T09:23:42.268Z,22.50
2017-10-22T09:24:42.291Z,22.50
2017-10-22T09:25:42.283Z,22.50
2017-10-22T09:26:42.302Z,16.88
2017-10-22T09:27:42.311Z,22.50
2017-10-22T09:28:42.305Z,16.88
2017-10-22T09:29:42.427Z,22.50
2017-10-22T09:30:42.321Z,16.88
2017-10-22T09:31:42.328Z,22.50
2017-10-22T09:32:42.449Z,22.50
2017-10-22T09:33:42.340Z,22.50
2017-10-22T09:34:42.463Z,16.88
2017-10-22T09:35:42.357Z,16.88
2017-10-22T09:36:42.478Z,16.88
2017-10-22T09:37:42.375Z,16.88
2017-10-22T09:38:42.491Z,16.88
2017-10-22T09:39:42.400Z,11.25
2017-10-22T09:40:42.506Z,11.25
2017-10-22T09:41:42.403Z,11.25
2017-10-22T09:42:42.518Z,11.25
2017-10-22T09:43:42.421Z,11.25
2017-10-22T09:44:42.530Z,11.25
2017-10-22T09:45:42.437Z,11.25
2017-10-22T09:46:42.450Z,11.25
2017-10-22T09:47:42.555Z,11.25
2017-10-22T09:48:42.459Z,11.25
2017-10-22T09:49:42.566Z,11.25
2017-10-22T09:50:42.470Z,11.25
2017-10-22T09:51:42.477Z,11.25
2017-10-22T09:52:42.483Z,11.25
2017-10-22T09:53:42.591Z,11.25
2017-10-22T09:54:42.503Z,11.25
2017-10-22T09:55:42.605Z,11.25
2017-10-22T09:56:42.515Z,11.25
2017-10-22T09:57:42.620Z,11.25
2017-10-22T09:58:42.529Z,11.25
2017-10-22T09:59:42.539Z,11.25
2017-10-22T10:00:42.547Z,11.25
2017-10-22T10:01:42.551Z,11.25
2017-10-22T10:02:42.657Z,11.25
2017-10-22T10:03:42.566Z,11.25
2017-10-22T10:04:42.667Z,11.25
2017-10-22T10:05:42.589Z,11.25
2017-10-22T10:06:42.685Z,11.25
2017-10-22T10:07:42.597Z,11.25
2017-10-22T10:08:42.609Z,11.25
2017-10-22T10:09:42.611Z,11.25
2017-10-22T10:10:42.624Z,11.25
2017-10-22T10:11:42.625Z,11.25
2017-10-22T10:12:42.710Z,11.25
2017-10-22T10:13:42.643Z,11.25
2017-10-22T10:14:42.728Z,11.25
2017-10-22T10:15:42.667Z,11.25
2017-10-22T10:16:42.738Z,11.25
2017-10-22T10:17:42.672Z,11.25
2017-10-22T10:18:42.750Z,11.25
2017-10-22T10:19:42.691Z,11.25
2017-10-22T10:20:42.765Z,11.25
2017-10-22T10:21:42.706Z,11.25
2017-10-22T10:22:42.777Z,11.25
2017-10-22T10:23:42.725Z,11.25
2017-10-22T10:24:42.730Z,11.25
2017-10-22T10:25:42.735Z,16.88
2017-10-22T10:26:42.806Z,11.25
2017-10-22T10:27:42.754Z,16.88
2017-10-22T10:28:42.755Z,11.25
2017-10-22T10:29:42.768Z,11.25
2017-10-22T10:30:42.831Z,11.25
2017-10-22T10:31:42.780Z,11.25
2017-10-22T10:32:42.844Z,16.88
2017-10-22T10:33:42.795Z,11.25
2017-10-22T10:34:42.863Z,11.25
2017-10-22T10:35:42.810Z,16.88
2017-10-22T10:36:42.873Z,11.25
2017-10-22T10:37:42.825Z,11.25
2017-10-22T10:38:42.886Z,11.25
2017-10-22T10:39:42.841Z,16.88
2017-10-22T10:40:42.854Z,11.25
2017-10-22T10:41:42.855Z,11.25
2017-10-22T10:42:42.862Z,16.88
2017-10-22T10:43:42.868Z,16.88
2017-10-22T10:44:42.875Z,16.88
2017-10-22T10:45:42.892Z,16.88
2017-10-22T10:46:42.889Z,16.88
2017-10-22T10:47:42.897Z,16.88
2017-10-22T10:48:42.908Z,16.88
2017-10-22T10:49:42.913Z,16.88
2017-10-22T10:50:42.965Z,16.88
2017-10-22T10:51:42.928Z,16.88
2017-10-22T10:52:42.980Z,22.50
2017-10-22T10:53:42.941Z,16.88
2017-10-22T10:54:42.995Z,16.88
2017-10-22T10:55:42.959Z,16.88
2017-10-22T10:56:43.012Z,22.50
2017-10-22T10:57:42.970Z,16.88
2017-10-22T10:58:43.019Z,22.50
2017-10-22T10:59:42.987Z,16.88
2017-10-22T11:00:43.033Z,16.88
2017-10-22T11:01:43.002Z,16.88
2017-10-22T11:02:43.011Z,16.88
2017-10-22T11:03:43.016Z,16.88
2017-10-22T11:04:43.027Z,11.25
2017-10-22T11:05:43.029Z,16.88
2017-10-22T11:06:43.075Z,16.88
2017-10-22T11:07:43.051Z,16.88
2017-10-22T11:08:43.086Z,16.88
2017-10-22T11:09:43.060Z,11.25
2017-10-22T11:10:43.100Z,16.88
2017-10-22T11:11:43.077Z,16.88
2017-10-22T11:12:43.088Z,16.88
2017-10-22T11:13:43.120Z,16.88
2017-10-22T11:14:43.104Z,16.88
2017-10-22T11:15:43.108Z,16.88
2017-10-22T11:16:43.115Z,11.25
2017-10-22T11:17:43.122Z,11.25
2017-10-22T11:18:43.134Z,11.25
2017-10-22T11:19:43.141Z,11.25
2017-10-22T11:20:43.170Z,16.88
2017-10-22T11:21:43.151Z,11.25
2017-10-22T11:22:43.183Z,11.25
2017-10-22T11:23:43.164Z,16.88
2017-10-22T11:24:43.198Z,16.88
2017-10-22T11:25:43.178Z,16.88
2017-10-22T11:26:43.188Z,11.25
2017-10-22T11:27:43.195Z,11.25
2017-10-22T11:28:43.205Z,16.88
2017-10-22T11:29:43.215Z,16.88
2017-10-22T11:30:43.223Z,11.25
2017-10-22T11:31:43.230Z,11.25
2017-10-22T11:32:43.248Z,11.25
2017-10-22T11:33:43.257Z,11.25
2017-10-22T11:34:43.247Z,11.25
2017-10-22T11:35:43.270Z,11.25
2017-10-22T11:36:43.259Z,11.25
2017-10-22T11:37:43.268Z,16.88
2017-10-22T11:38:43.277Z,16.88
2017-10-22T11:39:43.284Z,11.25
2017-10-22T11:40:43.293Z,11.25
2017-10-22T11:41:43.301Z,16.88
2017-10-22T11:42:43.328Z,11.25
2017-10-22T11:43:43.317Z,11.25
2017-10-22T11:44:43.320Z,11.25
2017-10-22T11:45:43.328Z,11.25
2017-10-22T11:46:43.337Z,11.25
2017-10-22T11:47:43.455Z,11.25
2017-10-22T11:48:43.353Z,11.25
2017-10-22T11:49:43.471Z,16.88
2017-10-22T11:50:43.369Z,11.25
2017-10-22T11:51:43.379Z,11.25
2017-10-22T11:52:43.381Z,11.25
2017-10-22T11:53:43.394Z,16.88
2017-10-22T11:54:43.395Z,16.88
2017-10-22T11:55:43.405Z,16.88
2017-10-22T11:56:43.410Z,16.88
2017-10-22T11:57:43.419Z,16.88
2017-10-22T11:58:43.426Z,16.88
2017-10-22T11:59:43.436Z,16.88
2017-10-22T12:00:43.446Z,16.88
2017-10-22T12:01:43.551Z,16.88
2017-10-22T12:02:43.456Z,16.88
2017-10-22T12:03:43.564Z,11.25
2017-10-22T12:04:43.470Z,16.88
2017-10-22T12:05:43.488Z,16.88
2017-10-22T12:06:43.584Z,16.88
2017-10-22T12:07:43.498Z,16.88
2017-10-22T12:08:43.503Z,22.50
2017-10-22T12:09:43.511Z,16.88
2017-10-22T12:10:43.520Z,16.88
2017-10-22T12:11:43.524Z,16.88
2017-10-22T12:12:43.529Z,28.13
2017-10-22T12:13:43.536Z,28.13
2017-10-22T12:14:43.545Z,28.13
2017-10-22T12:15:43.654Z,33.75
2017-10-22T12:16:43.563Z,22.50
2017-10-22T12:17:43.568Z,22.50
2017-10-22T12:18:43.574Z,28.13
2017-10-22T12:19:43.585Z,28.13
2017-10-22T12:20:43.595Z,33.75
2017-10-22T12:21:43.697Z,33.75
2017-10-22T12:23:01.959Z,28.13
2017-10-22T12:24:02.038Z,28.13
2017-10-22T12:25:56.389Z,33.75
2017-10-22T12:26:55.505Z,33.75
2017-10-22T12:27:55.612Z,39.38
2017-10-22T12:28:56.398Z,39.38
2017-10-22T12:29:55.629Z,39.38
2017-10-22T12:30:55.536Z,39.38
2017-10-22T12:31:55.637Z,39.38
2017-10-22T12:32:55.558Z,39.38
2017-10-22T12:33:55.659Z,33.75
2017-10-22T12:34:55.568Z,28.13
2017-10-22T12:35:55.669Z,28.13
2017-10-22T12:36:55.579Z,28.13
2017-10-22T12:37:55.687Z,22.50
2017-10-22T12:38:55.598Z,16.88
2017-10-22T12:39:55.603Z,11.25
2017-10-22T12:40:55.705Z,16.88
2017-10-22T12:41:55.620Z,16.88
2017-10-22T12:42:55.725Z,22.50
2017-10-22T12:43:55.636Z,16.88
2017-10-22T12:44:55.732Z,16.88
2017-10-22T12:45:55.656Z,16.88
2017-10-22T12:46:55.737Z,16.88
2017-10-22T12:47:55.662Z,22.50
2017-10-22T12:48:55.758Z,22.50
2017-10-22T12:49:55.684Z,22.50
2017-10-22T12:50:55.773Z,22.50
2017-10-22T12:51:55.698Z,22.50
2017-10-22T12:52:55.783Z,28.13
2017-10-22T12:53:55.723Z,28.13
2017-10-22T12:54:55.715Z,28.13
2017-10-22T12:55:55.726Z,22.50
2017-10-22T12:56:55.732Z,22.50
2017-10-22T12:57:55.820Z,22.50
2017-10-22T12:58:55.746Z,22.50
2017-10-22T12:59:55.760Z,22.50
2017-10-22T13:00:55.765Z,22.50
2017-10-22T13:01:55.776Z,22.50
2017-10-22T13:02:55.777Z,28.13
2017-10-22T13:03:55.793Z,28.13
2017-10-22T13:04:55.791Z,22.50
2017-10-22T13:05:56.896Z,22.50
2017-10-22T13:06:55.807Z,22.50
2017-10-22T13:07:55.886Z,22.50
2017-10-22T13:08:55.821Z,28.13
2017-10-22T13:09:55.901Z,22.50